sensor_id;sensor_type;location;lat;lon;timestamp;pressure;altitude;pressure_sealevel;temperature;humidity
59170;BME280;52474;52.236;5.114;2023-07-31T00:01:49;100984.31;;;16.31;100.00
59170;BME280;52474;52.236;5.114;2023-07-31T00:04:14;100975.16;;;16.42;100.00
59170;BME280;52474;52.236;5.114;2023-07-31T00:06:40;100976.97;;;16.41;100.00
59170;BME280;52474;52.236;5.114;2023-07-31T00:09:06;100977.00;;;16.49;100.00
59170;BME280;52474;52.236;5.114;2023-07-31T00:11:31;100977.34;;;16.55;100.00
59170;BME280;52474;52.236;5.114;2023-07-31T00:13:57;100960.78;;;16.51;100.00
59170;BME280;52474;52.236;5.114;2023-07-31T00:16:23;100966.63;;;16.63;100.00
59170;BME280;52474;52.236;5.114;2023-07-31T00:18:49;100931.06;;;16.54;100.00
59170;BME280;52474;52.236;5.114;2023-07-31T00:21:14;100951.09;;;16.58;100.00
59170;BME280;52474;52.236;5.114;2023-07-31T00:23:40;100954.44;;;16.60;100.00
59170;BME280;52474;52.236;5.114;2023-07-31T00:26:05;100940.88;;;16.53;100.00
59170;BME280;52474;52.236;5.114;2023-07-31T00:28:31;100964.13;;;16.53;100.00
59170;BME280;52474;52.236;5.114;2023-07-31T00:30:57;100905.16;;;16.30;100.00
59170;BME280;52474;52.236;5.114;2023-07-31T00:33:25;100936.72;;;16.59;100.00
59170;BME280;52474;52.236;5.114;2023-07-31T00:35:50;100926.88;;;16.51;100.00
59170;BME280;52474;52.236;5.114;2023-07-31T00:38:18;100938.56;;;16.67;100.00
59170;BME280;52474;52.236;5.114;2023-07-31T00:40:43;100949.09;;;16.77;100.00
59170;BME280;52474;52.236;5.114;2023-07-31T00:43:09;100939.38;;;16.67;100.00
59170;BME280;52474;52.236;5.114;2023-07-31T00:45:35;100950.94;;;16.84;100.00
59170;BME280;52474;52.236;5.114;2023-07-31T00:48:01;100946.56;;;16.75;100.00
59170;BME280;52474;52.236;5.114;2023-07-31T00:50:27;100881.91;;;16.39;100.00
59170;BME280;52474;52.236;5.114;2023-07-31T00:52:54;100926.19;;;16.66;100.00
59170;BME280;52474;52.236;5.114;2023-07-31T00:55:19;100945.22;;;16.71;100.00
59170;BME280;52474;52.236;5.114;2023-07-31T00:57:47;100930.03;;;16.55;100.00
59170;BME280;52474;52.236;5.114;2023-07-31T01:00:13;100917.50;;;16.47;100.00
59170;BME280;52474;52.236;5.114;2023-07-31T01:02:39;100953.59;;;16.60;100.00
59170;BME280;52474;52.236;5.114;2023-07-31T01:05:05;100957.94;;;16.52;100.00
59170;BME280;52474;52.236;5.114;2023-07-31T01:08:17;100958.97;;;16.51;100.00
59170;BME280;52474;52.236;5.114;2023-07-31T01:10:56;100928.53;;;16.36;100.00
59170;BME280;52474;52.236;5.114;2023-07-31T01:13:24;100945.91;;;16.48;100.00
59170;BME280;52474;52.236;5.114;2023-07-31T01:15:50;100942.06;;;16.51;100.00
59170;BME280;52474;52.236;5.114;2023-07-31T01:18:16;100941.56;;;16.47;100.00
59170;BME280;52474;52.236;5.114;2023-07-31T01:20:42;100913.84;;;16.32;100.00
59170;BME280;52474;52.236;5.114;2023-07-31T01:26:12;100947.41;;;16.43;100.00
59170;BME280;52474;52.236;5.114;2023-07-31T01:28:55;100929.38;;;16.45;100.00
59170;BME280;52474;52.236;5.114;2023-07-31T01:31:25;100935.91;;;16.42;100.00
59170;BME280;52474;52.236;5.114;2023-07-31T01:33:53;100938.06;;;16.47;100.00
59170;BME280;52474;52.236;5.114;2023-07-31T01:36:20;100933.91;;;16.44;100.00
59170;BME280;52474;52.236;5.114;2023-07-31T01:38:45;100934.22;;;16.41;100.00
59170;BME280;52474;52.236;5.114;2023-07-31T01:41:11;100928.38;;;16.46;100.00
59170;BME280;52474;52.236;5.114;2023-07-31T01:43:37;100932.72;;;16.55;100.00
59170;BME280;52474;52.236;5.114;2023-07-31T01:46:04;100916.00;;;16.45;100.00
59170;BME280;52474;52.236;5.114;2023-07-31T01:48:29;100937.03;;;16.56;100.00
59170;BME280;52474;52.236;5.114;2023-07-31T01:51:01;100872.09;;;16.23;100.00
59170;BME280;52474;52.236;5.114;2023-07-31T01:53:27;100913.31;;;16.53;100.00
59170;BME280;52474;52.236;5.114;2023-07-31T01:55:53;100902.47;;;16.55;100.00
59170;BME280;52474;52.236;5.114;2023-07-31T01:58:18;100891.78;;;16.55;100.00
59170;BME280;52474;52.236;5.114;2023-07-31T02:00:44;100911.16;;;16.65;100.00
59170;BME280;52474;52.236;5.114;2023-07-31T02:03:09;100886.78;;;16.43;100.00
59170;BME280;52474;52.236;5.114;2023-07-31T02:05:35;100845.84;;;16.26;100.00
59170;BME280;52474;52.236;5.114;2023-07-31T02:08:01;100889.09;;;16.63;100.00
59170;BME280;52474;52.236;5.114;2023-07-31T02:10:27;100892.44;;;16.65;100.00
59170;BME280;52474;52.236;5.114;2023-07-31T02:12:52;100892.91;;;16.68;100.00
59170;BME280;52474;52.236;5.114;2023-07-31T02:15:18;100860.69;;;16.53;100.00
59170;BME280;52474;52.236;5.114;2023-07-31T02:17:44;100871.91;;;16.57;100.00
59170;BME280;52474;52.236;5.114;2023-07-31T02:20:09;100861.53;;;16.54;100.00
59170;BME280;52474;52.236;5.114;2023-07-31T02:22:35;100875.06;;;16.69;100.00
59170;BME280;52474;52.236;5.114;2023-07-31T02:25:02;100885.41;;;16.72;100.00
59170;BME280;52474;52.236;5.114;2023-07-31T02:27:27;100862.34;;;16.63;100.00
59170;BME280;52474;52.236;5.114;2023-07-31T02:29:53;100856.84;;;16.56;100.00
59170;BME280;52474;52.236;5.114;2023-07-31T02:32:20;100882.22;;;16.68;100.00
59170;BME280;52474;52.236;5.114;2023-07-31T02:34:45;100886.56;;;16.69;100.00
59170;BME280;52474;52.236;5.114;2023-07-31T02:37:11;100884.72;;;16.70;100.00
59170;BME280;52474;52.236;5.114;2023-07-31T02:39:37;100860.03;;;16.51;100.00
59170;BME280;52474;52.236;5.114;2023-07-31T02:42:02;100872.38;;;16.69;100.00
59170;BME280;52474;52.236;5.114;2023-07-31T02:44:28;100879.88;;;16.65;100.00
59170;BME280;52474;52.236;5.114;2023-07-31T02:46:54;100849.69;;;16.57;100.00
59170;BME280;52474;52.236;5.114;2023-07-31T02:49:19;100845.34;;;16.47;100.00
59170;BME280;52474;52.236;5.114;2023-07-31T02:51:46;100850.00;;;16.62;100.00
59170;BME280;52474;52.236;5.114;2023-07-31T02:54:11;100830.28;;;16.55;100.00
59170;BME280;52474;52.236;5.114;2023-07-31T02:56:37;100871.69;;;16.75;100.00
59170;BME280;52474;52.236;5.114;2023-07-31T02:59:02;100859.13;;;16.75;100.00
59170;BME280;52474;52.236;5.114;2023-07-31T03:01:28;100853.78;;;16.75;100.00
59170;BME280;52474;52.236;5.114;2023-07-31T03:03:54;100856.31;;;16.77;100.00
59170;BME280;52474;52.236;5.114;2023-07-31T03:06:19;100850.28;;;16.75;100.00
59170;BME280;52474;52.236;5.114;2023-07-31T03:08:45;100853.16;;;16.82;100.00
59170;BME280;52474;52.236;5.114;2023-07-31T03:11:11;100850.28;;;16.75;100.00
59170;BME280;52474;52.236;5.114;2023-07-31T03:13:36;100841.09;;;16.78;100.00
59170;BME280;52474;52.236;5.114;2023-07-31T03:16:02;100830.91;;;16.73;100.00
59170;BME280;52474;52.236;5.114;2023-07-31T03:18:28;100851.78;;;16.86;100.00
59170;BME280;52474;52.236;5.114;2023-07-31T03:20:53;100857.69;;;16.81;100.00
59170;BME280;52474;52.236;5.114;2023-07-31T03:23:19;100849.97;;;16.78;100.00
59170;BME280;52474;52.236;5.114;2023-07-31T03:26:06;100857.31;;;16.84;100.00
59170;BME280;52474;52.236;5.114;2023-07-31T03:28:32;100842.94;;;16.85;100.00
59170;BME280;52474;52.236;5.114;2023-07-31T03:30:58;100813.03;;;16.65;100.00
59170;BME280;52474;52.236;5.114;2023-07-31T03:33:23;100835.06;;;16.75;100.00
59170;BME280;52474;52.236;5.114;2023-07-31T03:35:50;100846.94;;;16.73;100.00
59170;BME280;52474;52.236;5.114;2023-07-31T03:38:15;100847.63;;;16.75;100.00
59170;BME280;52474;52.236;5.114;2023-07-31T03:40:41;100822.59;;;16.60;100.00
59170;BME280;52474;52.236;5.114;2023-07-31T03:43:06;100839.47;;;16.60;100.00
59170;BME280;52474;52.236;5.114;2023-07-31T03:45:32;100817.44;;;16.50;100.00
59170;BME280;52474;52.236;5.114;2023-07-31T03:47:58;100841.63;;;16.65;100.00
59170;BME280;52474;52.236;5.114;2023-07-31T03:50:25;100833.97;;;16.62;100.00
59170;BME280;52474;52.236;5.114;2023-07-31T03:52:51;100831.41;;;16.68;100.00
59170;BME280;52474;52.236;5.114;2023-07-31T03:55:17;100801.88;;;16.53;100.00
59170;BME280;52474;52.236;5.114;2023-07-31T03:57:43;100803.03;;;16.51;100.00
59170;BME280;52474;52.236;5.114;2023-07-31T04:00:09;100804.53;;;16.53;100.00
59170;BME280;52474;52.236;5.114;2023-07-31T04:02:38;100811.38;;;16.56;100.00
59170;BME280;52474;52.236;5.114;2023-07-31T04:05:04;100804.25;;;16.40;100.00
59170;BME280;52474;52.236;5.114;2023-07-31T04:07:30;100812.59;;;16.45;100.00
59170;BME280;52474;52.236;5.114;2023-07-31T04:09:56;100814.13;;;16.40;100.00
59170;BME280;52474;52.236;5.114;2023-07-31T04:12:22;100800.25;;;16.36;100.00
59170;BME280;52474;52.236;5.114;2023-07-31T04:14:48;100791.91;;;16.39;100.00
59170;BME280;52474;52.236;5.114;2023-07-31T04:17:13;100786.22;;;16.34;100.00
59170;BME280;52474;52.236;5.114;2023-07-31T04:19:39;100769.69;;;16.30;100.00
59170;BME280;52474;52.236;5.114;2023-07-31T04:22:05;100770.69;;;16.38;100.00
59170;BME280;52474;52.236;5.114;2023-07-31T04:24:30;100770.16;;;16.34;100.00
59170;BME280;52474;52.236;5.114;2023-07-31T04:26:56;100784.38;;;16.43;100.00
59170;BME280;52474;52.236;5.114;2023-07-31T04:29:21;100765.69;;;16.35;100.00
59170;BME280;52474;52.236;5.114;2023-07-31T04:31:48;100781.03;;;16.41;100.00
59170;BME280;52474;52.236;5.114;2023-07-31T04:34:14;100802.53;;;16.56;100.00
59170;BME280;52474;52.236;5.114;2023-07-31T04:36:39;100797.19;;;16.56;100.00
59170;BME280;52474;52.236;5.114;2023-07-31T04:39:05;100779.19;;;16.49;100.00
59170;BME280;52474;52.236;5.114;2023-07-31T04:41:31;100767.84;;;16.39;100.00
59170;BME280;52474;52.236;5.114;2023-07-31T04:43:56;100795.84;;;16.60;100.00
59170;BME280;52474;52.236;5.114;2023-07-31T04:46:22;100789.88;;;16.49;100.00
59170;BME280;52474;52.236;5.114;2023-07-31T04:48:48;100779.53;;;16.38;100.00
59170;BME280;52474;52.236;5.114;2023-07-31T04:51:13;100788.38;;;16.47;100.00
59170;BME280;52474;52.236;5.114;2023-07-31T04:53:39;100776.00;;;16.46;100.00
59170;BME280;52474;52.236;5.114;2023-07-31T04:56:04;100725.59;;;16.26;100.00
59170;BME280;52474;52.236;5.114;2023-07-31T04:58:30;100766.16;;;16.38;100.00
59170;BME280;52474;52.236;5.114;2023-07-31T05:00:56;100753.69;;;16.22;100.00
59170;BME280;52474;52.236;5.114;2023-07-31T05:03:21;100771.69;;;16.37;100.00
59170;BME280;52474;52.236;5.114;2023-07-31T05:05:47;100779.03;;;16.43;100.00
59170;BME280;52474;52.236;5.114;2023-07-31T05:08:12;100765.19;;;16.31;100.00
59170;BME280;52474;52.236;5.114;2023-07-31T05:10:38;100747.66;;;16.20;100.00
59170;BME280;52474;52.236;5.114;2023-07-31T05:13:04;100747.31;;;16.23;100.00
59170;BME280;52474;52.236;5.114;2023-07-31T05:15:29;100759.47;;;16.34;100.00
59170;BME280;52474;52.236;5.114;2023-07-31T05:17:55;100735.97;;;16.21;100.00
59170;BME280;52474;52.236;5.114;2023-07-31T05:20:21;100753.97;;;16.36;100.00
59170;BME280;52474;52.236;5.114;2023-07-31T05:22:46;100757.66;;;16.35;100.00
59170;BME280;52474;52.236;5.114;2023-07-31T05:25:12;100756.81;;;16.34;100.00
59170;BME280;52474;52.236;5.114;2023-07-31T05:27:38;100724.63;;;16.11;100.00
59170;BME280;52474;52.236;5.114;2023-07-31T05:30:04;100741.94;;;16.31;100.00
59170;BME280;52474;52.236;5.114;2023-07-31T05:32:30;100746.66;;;16.29;100.00
59170;BME280;52474;52.236;5.114;2023-07-31T05:34:56;100722.78;;;16.12;100.00
59170;BME280;52474;52.236;5.114;2023-07-31T05:37:22;100706.25;;;16.16;100.00
59170;BME280;52474;52.236;5.114;2023-07-31T05:39:47;100739.47;;;16.30;100.00
59170;BME280;52474;52.236;5.114;2023-07-31T05:42:13;100707.44;;;16.14;100.00
59170;BME280;52474;52.236;5.114;2023-07-31T05:44:39;100729.75;;;16.29;100.00
59170;BME280;52474;52.236;5.114;2023-07-31T05:47:05;100723.09;;;16.33;100.00
59170;BME280;52474;52.236;5.114;2023-07-31T05:49:30;100697.88;;;16.19;100.00
59170;BME280;52474;52.236;5.114;2023-07-31T05:51:56;100721.22;;;16.42;100.00
59170;BME280;52474;52.236;5.114;2023-07-31T05:54:21;100711.91;;;16.29;100.00
59170;BME280;52474;52.236;5.114;2023-07-31T05:56:47;100676.34;;;16.21;100.00
59170;BME280;52474;52.236;5.114;2023-07-31T05:59:13;100723.72;;;16.43;100.00
59170;BME280;52474;52.236;5.114;2023-07-31T06:01:39;100718.38;;;16.43;100.00
59170;BME280;52474;52.236;5.114;2023-07-31T06:04:04;100717.69;;;16.41;100.00
59170;BME280;52474;52.236;5.114;2023-07-31T06:06:30;100710.53;;;16.42;100.00
59170;BME280;52474;52.236;5.114;2023-07-31T06:08:56;100711.72;;;16.39;100.00
59170;BME280;52474;52.236;5.114;2023-07-31T06:11:21;100666.03;;;16.18;100.00
59170;BME280;52474;52.236;5.114;2023-07-31T06:13:47;100697.03;;;16.35;100.00
59170;BME280;52474;52.236;5.114;2023-07-31T06:16:14;100700.47;;;16.44;100.00
59170;BME280;52474;52.236;5.114;2023-07-31T06:18:41;100699.19;;;16.40;100.00
59170;BME280;52474;52.236;5.114;2023-07-31T06:21:07;100702.34;;;16.43;100.00
59170;BME280;52474;52.236;5.114;2023-07-31T06:23:33;100698.66;;;16.44;100.00
59170;BME280;52474;52.236;5.114;2023-07-31T06:25:59;100695.44;;;16.49;100.00
59170;BME280;52474;52.236;5.114;2023-07-31T06:28:28;100696.44;;;16.56;100.00
59170;BME280;52474;52.236;5.114;2023-07-31T06:30:55;100701.97;;;16.55;100.00
59170;BME280;52474;52.236;5.114;2023-07-31T06:33:20;100685.09;;;16.54;100.00
59170;BME280;52474;52.236;5.114;2023-07-31T06:35:46;100664.53;;;16.55;100.00
59170;BME280;52474;52.236;5.114;2023-07-31T06:38:11;100684.47;;;16.75;100.00
59170;BME280;52474;52.236;5.114;2023-07-31T06:40:37;100676.81;;;16.72;100.00
59170;BME280;52474;52.236;5.114;2023-07-31T06:43:03;100671.16;;;16.67;100.00
59170;BME280;52474;52.236;5.114;2023-07-31T06:45:36;100684.34;;;16.68;100.00
59170;BME280;52474;52.236;5.114;2023-07-31T06:48:03;100668.13;;;16.70;100.00
59170;BME280;52474;52.236;5.114;2023-07-31T06:50:30;100638.50;;;16.48;100.00
59170;BME280;52474;52.236;5.114;2023-07-31T06:52:56;100665.09;;;16.73;100.00
59170;BME280;52474;52.236;5.114;2023-07-31T06:55:22;100670.75;;;16.86;100.00
59170;BME280;52474;52.236;5.114;2023-07-31T06:57:49;100671.09;;;16.83;100.00
59170;BME280;52474;52.236;5.114;2023-07-31T07:00:16;100646.75;;;16.70;100.00
59170;BME280;52474;52.236;5.114;2023-07-31T07:02:41;100669.91;;;16.86;100.00
59170;BME280;52474;52.236;5.114;2023-07-31T07:05:08;100661.53;;;16.89;100.00
59170;BME280;52474;52.236;5.114;2023-07-31T07:07:34;100624.81;;;16.74;100.00
59170;BME280;52474;52.236;5.114;2023-07-31T07:10:00;100659.47;;;16.99;100.00
59170;BME280;52474;52.236;5.114;2023-07-31T07:12:28;100669.44;;;17.05;100.00
59170;BME280;52474;52.236;5.114;2023-07-31T07:14:54;100631.41;;;16.95;100.00
59170;BME280;52474;52.236;5.114;2023-07-31T07:17:20;100657.31;;;17.17;100.00
59170;BME280;52474;52.236;5.114;2023-07-31T07:19:47;100629.31;;;16.82;100.00
59170;BME280;52474;52.236;5.114;2023-07-31T07:22:13;100657.09;;;17.04;100.00
59170;BME280;52474;52.236;5.114;2023-07-31T07:24:39;100634.72;;;16.97;100.00
59170;BME280;52474;52.236;5.114;2023-07-31T07:27:05;100641.56;;;17.00;100.00
59170;BME280;52474;52.236;5.114;2023-07-31T07:29:30;100657.03;;;17.12;100.00
59170;BME280;52474;52.236;5.114;2023-07-31T07:31:56;100658.50;;;17.15;100.00
59170;BME280;52474;52.236;5.114;2023-07-31T07:34:24;100656.84;;;17.14;100.00
59170;BME280;52474;52.236;5.114;2023-07-31T07:36:49;100638.19;;;17.06;100.00
59170;BME280;52474;52.236;5.114;2023-07-31T07:39:15;100647.22;;;17.05;100.00
59170;BME280;52474;52.236;5.114;2023-07-31T07:41:40;100660.06;;;17.09;100.00
59170;BME280;52474;52.236;5.114;2023-07-31T07:44:07;100637.41;;;16.97;100.00
59170;BME280;52474;52.236;5.114;2023-07-31T07:46:33;100649.25;;;17.26;100.00
59170;BME280;52474;52.236;5.114;2023-07-31T07:48:59;100661.31;;;17.22;100.00
59170;BME280;52474;52.236;5.114;2023-07-31T07:51:24;100647.97;;;17.36;100.00
59170;BME280;52474;52.236;5.114;2023-07-31T07:53:50;100651.47;;;17.37;100.00
59170;BME280;52474;52.236;5.114;2023-07-31T07:56:16;100629.38;;;17.20;100.00
59170;BME280;52474;52.236;5.114;2023-07-31T07:58:41;100614.44;;;17.26;100.00
59170;BME280;52474;52.236;5.114;2023-07-31T08:01:07;100649.38;;;17.47;100.00
59170;BME280;52474;52.236;5.114;2023-07-31T08:03:33;100637.44;;;17.35;100.00
59170;BME280;52474;52.236;5.114;2023-07-31T08:05:59;100623.59;;;17.31;100.00
59170;BME280;52474;52.236;5.114;2023-07-31T08:08:24;100637.38;;;17.43;100.00
59170;BME280;52474;52.236;5.114;2023-07-31T08:10:50;100632.06;;;17.58;100.00
59170;BME280;52474;52.236;5.114;2023-07-31T08:13:16;100627.97;;;17.47;100.00
59170;BME280;52474;52.236;5.114;2023-07-31T08:15:42;100626.06;;;17.56;100.00
59170;BME280;52474;52.236;5.114;2023-07-31T08:18:08;100634.25;;;17.54;100.00
59170;BME280;52474;52.236;5.114;2023-07-31T08:20:34;100639.28;;;17.57;100.00
59170;BME280;52474;52.236;5.114;2023-07-31T08:23:00;100639.28;;;17.72;100.00
59170;BME280;52474;52.236;5.114;2023-07-31T08:25:25;100630.22;;;17.73;100.00
59170;BME280;52474;52.236;5.114;2023-07-31T08:27:51;100609.72;;;17.66;100.00
59170;BME280;52474;52.236;5.114;2023-07-31T08:30:19;100624.91;;;17.88;100.00
59170;BME280;52474;52.236;5.114;2023-07-31T08:32:44;100567.25;;;17.63;100.00
59170;BME280;52474;52.236;5.114;2023-07-31T08:35:10;100618.19;;;17.92;100.00
59170;BME280;52474;52.236;5.114;2023-07-31T08:37:37;100630.00;;;17.83;100.00
59170;BME280;52474;52.236;5.114;2023-07-31T08:40:04;100605.06;;;17.83;100.00
59170;BME280;52474;52.236;5.114;2023-07-31T08:42:30;100591.84;;;17.81;100.00
59170;BME280;52474;52.236;5.114;2023-07-31T08:44:57;100623.97;;;18.11;100.00
59170;BME280;52474;52.236;5.114;2023-07-31T08:47:23;100624.19;;;18.09;100.00
59170;BME280;52474;52.236;5.114;2023-07-31T08:49:51;100618.84;;;18.09;100.00
59170;BME280;52474;52.236;5.114;2023-07-31T08:52:17;100613.25;;;18.11;100.00
59170;BME280;52474;52.236;5.114;2023-07-31T08:54:43;100621.56;;;18.16;100.00
59170;BME280;52474;52.236;5.114;2023-07-31T08:57:09;100612.72;;;18.15;100.00
59170;BME280;52474;52.236;5.114;2023-07-31T08:59:36;100598.22;;;18.10;100.00
59170;BME280;52474;52.236;5.114;2023-07-31T09:02:06;100604.94;;;18.20;100.00
59170;BME280;52474;52.236;5.114;2023-07-31T09:04:33;100618.81;;;18.24;100.00
59170;BME280;52474;52.236;5.114;2023-07-31T09:07:03;100620.66;;;18.23;100.00
59170;BME280;52474;52.236;5.114;2023-07-31T09:09:30;100620.34;;;18.33;100.00
59170;BME280;52474;52.236;5.114;2023-07-31T09:11:57;100627.78;;;18.31;100.00
59170;BME280;52474;52.236;5.114;2023-07-31T09:14:25;100599.03;;;18.10;100.00
59170;BME280;52474;52.236;5.114;2023-07-31T09:16:58;100597.28;;;18.17;100.00
59170;BME280;52474;52.236;5.114;2023-07-31T09:19:26;100624.50;;;18.36;100.00
59170;BME280;52474;52.236;5.114;2023-07-31T09:21:52;100618.16;;;18.22;100.00
59170;BME280;52474;52.236;5.114;2023-07-31T09:24:28;100598.84;;;18.27;100.00
59170;BME280;52474;52.236;5.114;2023-07-31T09:26:56;100616.28;;;18.37;100.00
59170;BME280;52474;52.236;5.114;2023-07-31T09:29:22;100590.69;;;18.35;100.00
59170;BME280;52474;52.236;5.114;2023-07-31T09:31:48;100587.91;;;18.28;100.00
59170;BME280;52474;52.236;5.114;2023-07-31T09:34:14;100582.91;;;18.40;100.00
59170;BME280;52474;52.236;5.114;2023-07-31T09:36:41;100575.94;;;18.45;100.00
59170;BME280;52474;52.236;5.114;2023-07-31T09:39:09;100606.69;;;18.64;100.00
59170;BME280;52474;52.236;5.114;2023-07-31T09:41:40;100612.84;;;18.58;100.00
59170;BME280;52474;52.236;5.114;2023-07-31T09:44:07;100602.47;;;18.55;100.00
59170;BME280;52474;52.236;5.114;2023-07-31T09:46:35;100599.47;;;18.65;100.00
59170;BME280;52474;52.236;5.114;2023-07-31T09:49:09;100613.97;;;18.49;100.00
59170;BME280;52474;52.236;5.114;2023-07-31T09:51:36;100607.56;;;18.50;100.00
59170;BME280;52474;52.236;5.114;2023-07-31T09:54:14;100603.94;;;18.58;100.00
59170;BME280;52474;52.236;5.114;2023-07-31T09:56:45;100585.38;;;18.56;100.00
59170;BME280;52474;52.236;5.114;2023-07-31T09:59:14;100603.06;;;18.72;100.00
59170;BME280;52474;52.236;5.114;2023-07-31T10:01:41;100603.56;;;18.76;100.00
59170;BME280;52474;52.236;5.114;2023-07-31T10:04:11;100584.28;;;18.72;100.00
59170;BME280;52474;52.236;5.114;2023-07-31T10:06:37;100602.66;;;18.90;100.00
59170;BME280;52474;52.236;5.114;2023-07-31T10:09:08;100580.97;;;18.70;100.00
59170;BME280;52474;52.236;5.114;2023-07-31T10:11:38;100595.13;;;19.00;100.00
59170;BME280;52474;52.236;5.114;2023-07-31T10:14:07;100577.34;;;18.99;100.00
59170;BME280;52474;52.236;5.114;2023-07-31T10:16:34;100605.72;;;18.87;100.00
59170;BME280;52474;52.236;5.114;2023-07-31T10:19:01;100602.78;;;18.82;100.00
59170;BME280;52474;52.236;5.114;2023-07-31T10:21:27;100609.13;;;18.59;100.00
59170;BME280;52474;52.236;5.114;2023-07-31T10:23:54;100609.22;;;18.66;100.00
59170;BME280;52474;52.236;5.114;2023-07-31T10:26:23;100613.28;;;18.62;100.00
59170;BME280;52474;52.236;5.114;2023-07-31T10:28:50;100584.75;;;18.39;100.00
59170;BME280;52474;52.236;5.114;2023-07-31T10:31:17;100607.66;;;18.57;100.00
59170;BME280;52474;52.236;5.114;2023-07-31T10:33:45;100575.16;;;18.30;100.00
59170;BME280;52474;52.236;5.114;2023-07-31T10:36:17;100582.69;;;18.56;100.00
59170;BME280;52474;52.236;5.114;2023-07-31T10:38:43;100598.00;;;18.62;100.00
59170;BME280;52474;52.236;5.114;2023-07-31T10:41:09;100557.00;;;18.47;100.00
59170;BME280;52474;52.236;5.114;2023-07-31T10:43:37;100599.69;;;18.63;100.00
59170;BME280;52474;52.236;5.114;2023-07-31T10:46:11;100595.88;;;18.58;100.00
59170;BME280;52474;52.236;5.114;2023-07-31T10:48:38;100611.63;;;18.76;100.00
59170;BME280;52474;52.236;5.114;2023-07-31T10:51:10;100605.66;;;18.65;100.00
59170;BME280;52474;52.236;5.114;2023-07-31T10:53:36;100608.59;;;18.49;100.00
59170;BME280;52474;52.236;5.114;2023-07-31T10:56:04;100602.66;;;18.54;100.00
59170;BME280;52474;52.236;5.114;2023-07-31T10:58:30;100602.53;;;18.77;100.00
59170;BME280;52474;52.236;5.114;2023-07-31T11:01:01;100601.31;;;19.01;100.00
59170;BME280;52474;52.236;5.114;2023-07-31T11:03:42;100602.72;;;19.18;100.00
59170;BME280;52474;52.236;5.114;2023-07-31T11:06:08;100584.25;;;19.08;100.00
59170;BME280;52474;52.236;5.114;2023-07-31T11:08:36;100588.81;;;19.08;100.00
59170;BME280;52474;52.236;5.114;2023-07-31T11:11:09;100593.06;;;19.02;100.00
59170;BME280;52474;52.236;5.114;2023-07-31T11:13:50;100573.34;;;18.88;100.00
59170;BME280;52474;52.236;5.114;2023-07-31T11:16:22;100594.50;;;18.98;100.00
59170;BME280;52474;52.236;5.114;2023-07-31T11:18:48;100601.81;;;18.90;100.00
59170;BME280;52474;52.236;5.114;2023-07-31T11:21:16;100582.78;;;18.84;100.00
59170;BME280;52474;52.236;5.114;2023-07-31T11:23:50;100597.16;;;18.77;100.00
59170;BME280;52474;52.236;5.114;2023-07-31T11:26:17;100590.91;;;18.91;100.00
59170;BME280;52474;52.236;5.114;2023-07-31T11:28:43;100596.72;;;18.95;100.00
59170;BME280;52474;52.236;5.114;2023-07-31T11:31:09;100577.59;;;19.04;100.00
59170;BME280;52474;52.236;5.114;2023-07-31T11:33:36;100576.19;;;19.08;100.00
59170;BME280;52474;52.236;5.114;2023-07-31T11:36:02;100574.47;;;19.22;100.00
59170;BME280;52474;52.236;5.114;2023-07-31T11:38:30;100585.22;;;19.22;100.00
59170;BME280;52474;52.236;5.114;2023-07-31T11:41:05;100566.28;;;18.87;100.00
59170;BME280;52474;52.236;5.114;2023-07-31T11:43:31;100581.06;;;18.77;100.00
59170;BME280;52474;52.236;5.114;2023-07-31T11:45:58;100540.38;;;18.73;100.00
59170;BME280;52474;52.236;5.114;2023-07-31T11:48:25;100581.19;;;19.12;100.00
59170;BME280;52474;52.236;5.114;2023-07-31T11:50:54;100559.47;;;19.06;100.00
59170;BME280;52474;52.236;5.114;2023-07-31T11:53:31;100548.88;;;18.98;100.00
59170;BME280;52474;52.236;5.114;2023-07-31T11:55:59;100579.22;;;19.27;100.00
59170;BME280;52474;52.236;5.114;2023-07-31T11:58:27;100575.16;;;19.31;100.00
59170;BME280;52474;52.236;5.114;2023-07-31T12:00:53;100579.13;;;19.42;100.00
59170;BME280;52474;52.236;5.114;2023-07-31T12:03:19;100581.88;;;19.48;100.00
59170;BME280;52474;52.236;5.114;2023-07-31T12:05:47;100561.78;;;19.38;100.00
59170;BME280;52474;52.236;5.114;2023-07-31T12:08:13;100587.34;;;19.34;100.00
59170;BME280;52474;52.236;5.114;2023-07-31T12:10:39;100585.47;;;19.34;100.00
59170;BME280;52474;52.236;5.114;2023-07-31T12:13:08;100594.06;;;19.44;100.00
59170;BME280;52474;52.236;5.114;2023-07-31T12:15:43;100586.25;;;19.49;100.00
59170;BME280;52474;52.236;5.114;2023-07-31T12:18:21;100587.25;;;19.48;100.00
59170;BME280;52474;52.236;5.114;2023-07-31T12:20:49;100580.72;;;19.58;100.00
59170;BME280;52474;52.236;5.114;2023-07-31T12:23:27;100577.19;;;19.57;100.00
59170;BME280;52474;52.236;5.114;2023-07-31T12:26:12;100569.50;;;19.54;100.00
59170;BME280;52474;52.236;5.114;2023-07-31T12:28:41;100533.25;;;19.37;100.00
59170;BME280;52474;52.236;5.114;2023-07-31T12:31:09;100530.19;;;19.40;100.00
59170;BME280;52474;52.236;5.114;2023-07-31T12:33:38;100535.41;;;19.48;100.00
59170;BME280;52474;52.236;5.114;2023-07-31T12:36:11;100529.66;;;19.58;100.00
59170;BME280;52474;52.236;5.114;2023-07-31T12:38:37;100548.19;;;19.74;100.00
59170;BME280;52474;52.236;5.114;2023-07-31T12:41:03;100546.44;;;19.66;100.00
59170;BME280;52474;52.236;5.114;2023-07-31T12:43:29;100565.56;;;19.78;100.00